createdAt,value
2022-10-11T00:01:58.221Z,9.35
2022-10-11T00:07:03.421Z,9.30
2022-10-11T00:12:07.378Z,9.31
2022-10-11T00:17:10.857Z,9.30
2022-10-11T00:22:16.103Z,9.29
2022-10-11T00:27:19.616Z,9.29
2022-10-11T00:32:23.169Z,9.29
2022-10-11T00:37:28.120Z,9.37
2022-10-11T00:42:31.513Z,9.26
2022-10-11T00:47:35.172Z,9.16
2022-10-11T00:52:43.500Z,9.01
2022-10-11T00:57:49.906Z,9.01
2022-10-11T01:02:53.670Z,8.96
2022-10-11T01:08:00.142Z,9.04
2022-10-11T01:13:14.361Z,8.94
2022-10-11T01:18:23.318Z,8.84
2022-10-11T01:23:55.344Z,8.83
2022-10-11T01:29:10.946Z,8.89
2022-10-11T01:34:25.409Z,8.67
2022-10-11T01:39:34.539Z,8.65
2022-10-11T01:44:40.721Z,8.74
2022-10-11T01:49:46.231Z,8.65
2022-10-11T01:55:10.187Z,8.65
2022-10-11T02:00:17.170Z,8.63
2022-10-11T02:05:30.485Z,8.39
2022-10-11T02:10:41.339Z,8.38
2022-10-11T02:15:48.182Z,8.49
2022-10-11T02:20:53.999Z,8.46
2022-10-11T02:25:59.011Z,8.32
2022-10-11T02:31:06.076Z,8.20
2022-10-11T02:36:17.501Z,8.27
2022-10-11T02:41:28.935Z,8.42
2022-10-11T02:46:32.618Z,8.60
2022-10-11T02:51:37.606Z,8.49
2022-10-11T02:56:41.142Z,8.24
2022-10-11T03:01:45.000Z,8.25
2022-10-11T03:06:49.888Z,8.31
2022-10-11T03:11:53.549Z,8.31
2022-10-11T03:17:12.095Z,8.40
2022-10-11T03:22:22.749Z,8.44
2022-10-11T03:27:26.261Z,8.31
2022-10-11T03:32:30.169Z,8.15
2022-10-11T03:37:35.377Z,8.29
2022-10-11T03:42:39.424Z,8.20
2022-10-11T03:47:42.856Z,8.15
2022-10-11T03:52:47.746Z,8.01
2022-10-11T03:57:51.471Z,7.99
2022-10-11T04:02:54.882Z,8.03
2022-10-11T04:07:59.711Z,7.98
2022-10-11T04:13:03.195Z,8.01
2022-10-11T04:18:07.298Z,7.89
2022-10-11T04:23:12.171Z,7.94
2022-10-11T04:28:15.678Z,7.96
2022-10-11T04:33:19.242Z,7.86
2022-10-11T04:38:24.479Z,7.82
2022-10-11T04:43:27.905Z,7.94
2022-10-11T04:48:31.771Z,8.10
2022-10-11T04:53:36.868Z,8.14
2022-10-11T04:58:41.911Z,8.24
2022-10-11T05:03:45.351Z,8.36
2022-10-11T05:08:50.439Z,8.52
2022-10-11T05:13:54.381Z,8.66
2022-10-11T05:18:57.916Z,8.96
2022-10-11T05:24:02.811Z,9.36
2022-10-11T05:29:06.474Z,9.74
2022-10-11T05:34:10.197Z,10.31
2022-10-11T05:39:20.309Z,10.92
2022-10-11T05:44:24.756Z,11.60
2022-10-11T05:49:28.181Z,12.17
2022-10-11T05:54:33.302Z,12.34
2022-10-11T05:59:37.106Z,12.48
2022-10-11T06:04:41.271Z,12.67
2022-10-11T06:09:46.323Z,12.81
2022-10-11T06:14:49.799Z,12.98
2022-10-11T06:19:53.371Z,13.22
2022-10-11T06:24:58.195Z,13.59
2022-10-11T06:30:02.020Z,13.81
2022-10-11T06:35:06.462Z,14.08
2022-10-11T06:40:12.722Z,14.27
2022-10-11T06:45:16.457Z,14.61
2022-10-11T06:50:34.825Z,14.93
2022-10-11T06:55:39.887Z,15.30
2022-10-11T07:00:43.431Z,15.59
2022-10-11T07:05:47.018Z,15.81
2022-10-11T07:10:52.411Z,16.12
2022-10-11T07:15:56.057Z,16.28
2022-10-11T07:20:59.645Z,16.48
2022-10-11T07:26:05.075Z,16.89
2022-10-11T07:31:10.575Z,16.78
2022-10-11T07:36:14.432Z,17.14
2022-10-11T07:41:20.102Z,17.46
2022-10-11T07:46:24.237Z,17.37
2022-10-11T07:51:27.843Z,17.49
2022-10-11T07:56:32.709Z,17.79
2022-10-11T08:01:36.282Z,18.03
2022-10-11T08:06:39.850Z,18.03
2022-10-11T08:11:44.697Z,18.17
2022-10-11T08:16:48.617Z,18.43
2022-10-11T08:21:52.054Z,18.62
2022-10-11T08:26:56.942Z,19.01
2022-10-11T08:32:00.853Z,19.16
2022-10-11T08:37:04.302Z,19.32
2022-10-11T08:42:16.794Z,19.66
2022-10-11T08:47:24.760Z,19.63
2022-10-11T08:52:45.846Z,20.16
2022-10-11T08:57:55.820Z,20.26
2022-10-11T09:03:08.855Z,20.83
2022-10-11T09:08:22.646Z,20.52
2022-10-11T09:13:45.221Z,20.57
2022-10-11T09:19:05.751Z,20.57
2022-10-11T09:24:23.988Z,20.64
2022-10-11T09:29:47.351Z,19.95
2022-10-11T09:34:58.801Z,19.27
2022-10-11T09:40:07.649Z,19.18
2022-10-11T09:45:18.535Z,18.75
2022-10-11T09:50:25.921Z,19.08
2022-10-11T09:55:35.051Z,19.54
2022-10-11T10:00:39.941Z,19.58
2022-10-11T10:05:44.011Z,19.81
2022-10-11T10:10:55.787Z,20.21
2022-10-11T10:16:04.489Z,20.03
2022-10-11T10:21:13.621Z,19.94
2022-10-11T10:26:19.455Z,20.23
2022-10-11T10:31:26.762Z,19.99
2022-10-11T10:36:34.652Z,20.42
2022-10-11T10:41:38.275Z,20.57
2022-10-11T10:46:56.693Z,20.97
2022-10-11T10:52:20.998Z,20.97
2022-10-11T10:57:30.566Z,20.61
2022-10-11T11:02:45.978Z,20.50
2022-10-11T11:07:55.896Z,20.21
2022-10-11T11:13:09.531Z,20.18
2022-10-11T11:18:29.076Z,20.45
2022-10-11T11:23:40.883Z,20.19
2022-10-11T11:28:55.131Z,20.18
2022-10-11T11:34:11.239Z,20.50
2022-10-11T11:39:20.422Z,20.33
2022-10-11T11:44:30.857Z,20.61
2022-10-11T11:49:39.935Z,20.51
2022-10-11T11:54:51.943Z,20.86
2022-10-11T12:00:02.657Z,21.24
2022-10-11T12:05:19.169Z,21.39
2022-10-11T12:10:30.249Z,20.91
2022-10-11T12:15:34.138Z,21.24
2022-10-11T12:20:41.640Z,21.27
2022-10-11T12:25:45.613Z,20.95
2022-10-11T12:30:54.628Z,21.24
2022-10-11T12:36:07.352Z,20.58
2022-10-11T12:41:38.319Z,20.44
2022-10-11T12:46:59.411Z,20.47
2022-10-11T12:52:07.057Z,19.92
2022-10-11T12:57:47.180Z,19.48
2022-10-11T13:02:51.453Z,19.04
2022-10-11T13:07:59.235Z,19.24
2022-10-11T13:13:04.661Z,19.31
2022-10-11T13:18:08.093Z,19.12
2022-10-11T13:23:24.250Z,19.06
2022-10-11T13:28:34.154Z,18.72
2022-10-11T13:33:44.126Z,18.77
2022-10-11T13:38:56.088Z,18.85
2022-10-11T13:44:01.387Z,18.70
2022-10-11T13:49:24.386Z,18.45
2022-10-11T13:54:55.132Z,18.29
2022-10-11T14:00:02.501Z,18.05
2022-10-11T14:05:25.297Z,17.87
2022-10-11T14:10:30.845Z,17.63
2022-10-11T14:15:35.794Z,17.59
2022-10-11T14:20:40.714Z,17.24
2022-10-11T14:25:45.632Z,17.09
2022-10-11T14:30:49.330Z,17.02
2022-10-11T14:35:52.709Z,17.08
2022-10-11T14:40:57.583Z,16.94
2022-10-11T14:46:00.994Z,16.69
2022-10-11T14:51:05.239Z,16.68
2022-10-11T14:56:10.258Z,16.67
2022-10-11T15:01:14.987Z,16.60
2022-10-11T15:06:20.513Z,16.45
2022-10-11T15:11:25.414Z,16.21
2022-10-11T15:16:28.837Z,16.06
2022-10-11T15:21:32.434Z,15.98
2022-10-11T15:26:37.529Z,15.94
2022-10-11T15:31:41.349Z,15.92
2022-10-11T15:36:44.814Z,15.87
2022-10-11T15:41:49.845Z,15.75
2022-10-11T15:46:53.827Z,15.72
2022-10-11T15:51:57.585Z,15.55
2022-10-11T15:57:02.793Z,15.49
2022-10-11T16:02:06.220Z,15.52
2022-10-11T16:07:09.985Z,15.48
2022-10-11T16:12:14.768Z,15.50
2022-10-11T16:17:18.191Z,15.45
2022-10-11T16:22:21.615Z,15.35
2022-10-11T16:27:26.368Z,15.33
2022-10-11T16:32:30.620Z,15.53
2022-10-11T16:37:34.587Z,15.33
2022-10-11T16:42:41.209Z,15.27
2022-10-11T16:47:45.095Z,15.27
2022-10-11T16:52:48.454Z,15.24
2022-10-11T16:57:53.613Z,15.16
2022-10-11T17:02:57.006Z,15.13
2022-10-11T17:08:00.398Z,15.16
2022-10-11T17:13:05.432Z,15.07
2022-10-11T17:18:08.827Z,15.07
2022-10-11T17:23:12.599Z,15.08
2022-10-11T17:28:17.506Z,14.97
2022-10-11T17:33:20.938Z,14.98
2022-10-11T17:38:27.460Z,14.95
2022-10-11T17:43:32.548Z,14.92
2022-10-11T17:48:39.233Z,14.99
2022-10-11T17:53:43.115Z,14.91
2022-10-11T17:58:49.311Z,14.98
2022-10-11T18:03:55.241Z,14.91
2022-10-11T18:09:02.146Z,14.92
2022-10-11T18:14:07.008Z,14.86
2022-10-11T18:19:13.693Z,14.83
2022-10-11T18:24:18.489Z,14.84
2022-10-11T18:29:23.293Z,14.87
2022-10-11T18:34:26.949Z,14.87
2022-10-11T18:39:30.309Z,14.87
2022-10-11T18:44:35.444Z,14.77
2022-10-11T18:49:38.973Z,14.75
2022-10-11T18:54:42.524Z,14.74
2022-10-11T18:59:47.349Z,14.66
2022-10-11T19:04:52.773Z,14.64
2022-10-11T19:09:56.498Z,14.64
2022-10-11T19:15:01.935Z,14.56
2022-10-11T19:20:06.912Z,14.53
2022-10-11T19:25:10.882Z,14.47
2022-10-11T19:30:16.114Z,14.57
2022-10-11T19:35:20.178Z,14.58
2022-10-11T19:40:23.597Z,14.58
2022-10-11T19:45:28.472Z,14.40
2022-10-11T19:50:31.845Z,14.36
2022-10-11T19:55:36.240Z,14.41
2022-10-11T20:00:41.297Z,14.43
2022-10-11T20:05:44.716Z,14.45
2022-10-11T20:10:48.202Z,14.29
2022-10-11T20:15:58.086Z,14.27
2022-10-11T20:21:04.446Z,14.31
2022-10-11T20:26:09.205Z,14.37
2022-10-11T20:31:15.883Z,14.35
2022-10-11T20:36:20.905Z,14.35
2022-10-11T20:41:26.330Z,14.21
2022-10-11T20:46:32.723Z,14.17
2022-10-11T20:51:38.886Z,14.17
2022-10-11T20:56:42.367Z,14.17
2022-10-11T21:01:47.529Z,14.14
2022-10-11T21:06:51.185Z,14.04
2022-10-11T21:11:54.600Z,13.91
2022-10-11T21:16:59.500Z,13.90
2022-10-11T21:22:03.081Z,13.84
2022-10-11T21:27:06.493Z,13.73
2022-10-11T21:32:14.406Z,13.78
2022-10-11T21:37:18.105Z,13.85
2022-10-11T21:42:24.768Z,13.80
2022-10-11T21:47:32.337Z,13.68
2022-10-11T21:52:36.198Z,13.67
2022-10-11T21:57:39.851Z,13.73
2022-10-11T22:02:44.614Z,13.77
2022-10-11T22:07:48.022Z,13.71
2022-10-11T22:12:51.470Z,13.65
2022-10-11T22:17:56.279Z,13.62
2022-10-11T22:22:59.672Z,13.67
2022-10-11T22:28:03.140Z,13.69
2022-10-11T22:33:07.946Z,13.71
2022-10-11T22:38:11.589Z,13.68
2022-10-11T22:43:15.122Z,13.66
2022-10-11T22:48:19.968Z,13.61
2022-10-11T22:53:24.280Z,13.57
2022-10-11T22:58:27.924Z,13.37
2022-10-11T23:03:32.842Z,13.37
2022-10-11T23:08:39.178Z,13.49
2022-10-11T23:13:42.551Z,13.51
2022-10-11T23:18:47.437Z,13.50
2022-10-11T23:23:53.589Z,13.37
2022-10-11T23:28:57.414Z,13.41
2022-10-11T23:34:02.243Z,13.46
2022-10-11T23:39:05.857Z,13.54
2022-10-11T23:44:09.747Z,13.54
2022-10-11T23:49:14.645Z,13.55
2022-10-11T23:54:18.032Z,13.53
2022-10-11T23:59:21.403Z,13.56
